Time;durP1;ratioP1;P1;durP2;ratioP2;P2;SDS_P1;SDS_P2;PMS_P1;PMS_P2;Temp;Humidity;BMP_temperature;BMP_pressure;BME280_temperature;BME280_humidity;BME280_pressure;Samples;Min_cycle;Max_cycle;Signal;HPM_P1;HPM_P2
2022/08/07 00:02:12;;;;;;;3.13;1.45;;;19.10;34.80;;;21.74;27.47;98198.38;5090166;28;20070;-56
2022/08/07 00:05:00;;;;;;;1.48;1.30;;;19.00;34.60;;;21.73;27.86;98192.13;5089773;28;20046;-53
2022/08/07 00:07:31;;;;;;;3.13;1.30;;;19.00;34.70;;;21.67;27.89;98200.28;5090165;28;20372;-53
2022/08/07 00:10:08;;;;;;;2.63;1.30;;;19.00;34.70;;;21.62;27.57;98198.25;5089036;28;20058;-55
2022/08/07 00:13:02;;;;;;;2.30;1.48;;;18.90;34.70;;;21.55;27.64;98197.44;5089982;28;20051;-55
2022/08/07 00:15:50;;;;;;;1.50;1.38;;;18.80;34.80;;;21.52;27.92;98193.31;5089991;28;20074;-55
2022/08/07 00:18:25;;;;;;;2.60;1.30;;;18.80;35.10;;;21.47;27.89;98192.28;5088890;28;20070;-52
2022/08/07 00:21:03;;;;;;;1.85;1.70;;;18.70;35.50;;;21.43;28.05;98195.41;5087580;28;20062;-54
2022/08/07 00:23:51;;;;;;;1.63;1.13;;;18.80;35.60;;;21.41;27.66;98188.53;5088881;28;20211;-55
2022/08/07 00:26:19;;;;;;;1.88;1.30;;;18.70;34.80;;;21.35;27.63;98194.84;5090432;28;20048;-56
2022/08/07 00:29:07;;;;;;;2.78;1.50;;;18.70;34.70;;;21.35;27.88;98197.53;5074407;28;20274;-55
2022/08/07 00:31:35;;;;;;;1.25;1.13;;;18.70;34.80;;;21.32;28.07;98193.38;5089761;28;20233;-51
2022/08/07 00:34:08;;;;;;;1.33;1.23;;;18.70;34.90;;;21.30;28.12;98187.34;5089934;28;20263;-57
2022/08/07 00:36:37;;;;;;;1.23;1.08;;;18.60;35.00;;;21.29;28.19;98195.72;5087152;28;20055;-57
2022/08/07 00:39:11;;;;;;;2.35;1.27;;;18.70;35.30;;;21.27;28.38;98200.47;5087280;28;20064;-55
2022/08/07 00:41:54;;;;;;;;;;;18.70;35.30;;;21.52;27.42;98195.16;5088971;28;20047;-56
2022/08/07 00:44:33;;;;;;;2.17;1.48;;;18.60;36.50;;;21.33;28.14;98192.34;5088147;28;19930;-56
2022/08/07 00:47:05;;;;;;;2.13;1.30;;;18.60;35.50;;;21.27;28.25;98189.66;5090070;28;20044;-55
2022/08/07 00:49:53;;;;;;;1.33;1.20;;;18.60;35.50;;;21.24;28.25;98193.63;5087137;28;20060;-54
2022/08/07 00:52:42;;;;;;;1.25;1.15;;;18.60;35.70;;;21.18;28.54;98191.78;5089527;28;20055;-57
2022/08/07 00:55:14;;;;;;;3.25;1.27;;;18.50;35.80;;;21.16;28.51;98185.75;5087951;28;20056;-54
2022/08/07 00:57:52;;;;;;;1.50;1.40;;;18.40;35.90;;;21.10;28.67;98190.16;5088006;28;20173;-56
2022/08/07 01:00:23;;;;;;;1.48;1.25;;;18.40;36.00;;;21.07;28.84;98184.34;5086566;28;20048;-53
2022/08/07 01:02:51;;;;;;;1.20;1.10;;;18.40;36.10;;;21.03;28.96;98189.34;5089343;28;20070;-56
2022/08/07 01:05:21;;;;;;;1.92;1.48;;;18.40;36.30;;;21.00;29.01;98185.22;5088100;28;20242;-57
2022/08/07 01:07:51;;;;;;;2.80;1.33;;;18.40;36.40;;;20.99;28.77;98182.72;5087458;28;20044;-56
2022/08/07 01:10:21;;;;;;;1.50;1.23;;;18.30;36.60;;;20.94;29.28;98185.25;5088658;28;20044;-56
2022/08/07 01:12:52;;;;;;;2.42;1.33;;;18.20;36.90;;;20.87;29.15;98189.84;5088440;28;20042;-57
2022/08/07 01:15:25;;;;;;;2.42;1.33;;;18.20;36.90;;;20.83;29.24;98175.91;5103966;28;20055;-55
2022/08/07 01:18:13;;;;;;;1.30;1.20;;;18.10;37.10;;;20.80;29.15;98192.56;5086102;28;20066;-55
2022/08/07 01:20:53;;;;;;;1.17;1.08;;;18.10;37.20;;;20.78;29.34;98189.25;5087757;28;20094;-55
2022/08/07 01:23:27;;;;;;;1.80;1.20;;;18.10;37.30;;;20.78;29.53;98179.28;5088278;28;20059;-50
2022/08/07 01:26:13;;;;;;;2.08;1.15;;;18.10;37.20;;;20.75;29.33;98181.56;5090011;28;20048;-51
2022/08/07 01:28:49;;;;;;;2.10;1.17;;;18.00;37.20;;;20.71;29.46;98188.47;5085721;28;20088;-54
2022/08/07 01:31:30;;;;;;;1.90;1.50;;;18.00;37.30;;;20.69;29.51;98183.25;5087961;28;20416;-54
2022/08/07 01:34:13;;;;;;;1.38;1.23;;;18.00;37.30;;;20.68;29.49;98187.00;5086596;28;20052;-55
2022/08/07 01:36:42;;;;;;;1.25;1.08;;;18.00;37.30;;;20.62;29.49;98180.56;5086361;28;20059;-53
2022/08/07 01:39:28;;;;;;;1.88;1.20;;;17.90;37.60;;;20.58;29.97;98181.16;5088298;28;20066;-55
2022/08/07 01:42:20;;;;;;;1.85;1.75;;;17.90;38.00;;;20.53;29.66;98180.97;5086246;28;20052;-55
2022/08/07 01:45:10;;;;;;;1.20;1.10;;;17.80;37.60;;;20.47;29.89;98185.34;5087227;28;20056;-55
2022/08/07 01:47:49;;;;;;;1.42;1.08;;;17.70;37.80;;;20.43;30.04;98193.06;5086563;28;20235;-56
2022/08/07 01:50:38;;;;;;;2.13;1.30;;;17.70;38.10;;;20.40;30.03;98184.56;5103531;28;20052;-54
2022/08/07 01:53:12;;;;;;;2.47;1.30;;;17.70;38.10;;;20.38;30.22;98187.47;5068510;28;20056;-55
2022/08/07 01:56:12;;;;;;;1.08;1.00;;;17.70;38.20;;;20.39;30.00;98183.69;5071315;28;20090;-56
2022/08/07 01:58:51;;;;;;;1.42;1.33;;;17.70;38.30;;;20.36;30.04;98189.53;5087173;28;20070;-54
2022/08/07 02:01:25;;;;;;;1.70;1.30;;;17.60;38.80;;;20.31;30.31;98180.41;5086100;28;20052;-53
2022/08/07 02:04:34;;;;;;;2.53;1.58;;;17.60;38.30;;;20.29;30.49;98171.66;5090032;28;20063;-56
2022/08/07 02:07:06;;;;;;;1.30;1.20;;;17.60;39.10;;;20.22;30.69;98175.22;5069360;28;20250;-52
2022/08/07 02:09:34;;;;;;;1.48;1.38;;;17.50;38.90;;;20.21;30.52;98178.13;5085445;28;20052;-55
2022/08/07 02:12:23;;;;;;;1.63;1.17;;;17.50;38.80;;;20.20;30.63;98176.44;5086923;28;20245;-55
2022/08/07 02:15:01;;;;;;;1.80;1.30;;;17.50;39.20;;;20.16;30.80;98165.25;5086657;28;20059;-53
2022/08/07 02:17:39;;;;;;;1.80;1.45;;;17.50;39.00;;;20.16;31.00;98167.09;5071344;28;20261;-54
2022/08/07 02:20:18;;;;;;;2.08;1.15;;;17.50;39.10;;;20.17;30.84;98158.78;5086434;28;20047;-56
2022/08/07 02:22:58;;;;;;;2.58;1.30;;;17.50;39.00;;;20.16;30.93;98164.41;5086370;28;20070;-53
2022/08/07 02:25:31;;;;;;;2.47;1.10;;;17.50;39.10;;;20.13;30.93;98162.97;5087587;28;20052;-54
2022/08/07 02:28:21;;;;;;;1.40;1.30;;;17.50;39.20;;;20.14;30.90;98159.22;5089091;28;20067;-53
2022/08/07 02:30:57;;;;;;;2.05;1.40;;;17.50;39.20;;;20.09;31.28;98159.03;5086670;28;20245;-54
2022/08/07 02:33:28;;;;;;;1.80;1.10;;;17.50;39.50;;;20.10;30.87;98154.44;5086235;28;20338;-55
2022/08/07 02:36:18;;;;;;;1.10;1.00;;;17.50;39.50;;;20.12;31.06;98153.16;5088114;28;20050;-52
2022/08/07 02:39:05;;;;;;;1.30;1.20;;;17.50;39.50;;;20.13;31.24;98151.31;5084684;28;20261;-51
2022/08/07 02:41:47;;;;;;;2.10;1.27;;;17.40;39.50;;;20.13;31.03;98151.31;5084505;28;20396;-51
2022/08/07 02:44:25;;;;;;;1.63;1.45;;;17.40;39.30;;;20.05;31.26;98146.97;5087167;28;20063;-52
2022/08/07 02:47:04;;;;;;;1.20;1.10;;;17.40;39.70;;;20.01;31.42;98154.66;5085647;28;20036;-56
2022/08/07 02:49:34;;;;;;;1.65;1.35;;;17.30;39.90;;;19.96;31.51;98153.63;5085048;28;20062;-55
2022/08/07 02:52:38;;;;;;;1.35;1.08;;;17.30;39.90;;;20.02;31.39;98147.38;5085318;28;20052;-53
2022/08/07 02:55:14;;;;;;;1.58;1.45;;;17.30;41.00;;;20.00;31.62;98152.16;5069537;28;20078;-54
2022/08/07 02:58:06;;;;;;;1.88;1.25;;;17.30;40.60;;;19.98;31.53;98148.84;5088461;28;20066;-50
2022/08/07 03:00:41;;;;;;;2.00;1.30;;;17.30;40.30;;;19.96;31.95;98140.09;5069505;28;20056;-55
2022/08/07 03:03:17;;;;;;;2.22;0.90;;;17.30;40.40;;;19.91;31.80;98138.06;5086500;28;20346;-52
2022/08/07 03:05:55;;;;;;;2.70;1.15;;;17.30;40.60;;;19.89;31.75;98140.13;5069609;28;20052;-54
2022/08/07 03:08:23;;;;;;;1.10;0.93;;;17.20;40.70;;;19.85;32.09;98141.56;5085536;28;20051;-55
2022/08/07 03:11:00;;;;;;;1.30;1.02;;;17.20;40.80;;;19.85;31.81;98139.72;5069399;28;20048;-53
2022/08/07 03:13:35;;;;;;;1.30;1.20;;;17.20;40.80;;;19.83;32.15;98135.53;5067797;28;20055;-54
2022/08/07 03:16:18;;;;;;;2.83;1.38;;;17.20;41.00;;;19.78;32.18;98143.44;5087884;28;20063;-53
2022/08/07 03:18:55;;;;;;;2.03;1.33;;;17.10;41.20;;;19.73;32.67;98138.66;5086730;28;20060;-56
2022/08/07 03:21:25;;;;;;;1.35;1.15;;;17.00;41.60;;;19.71;32.68;98143.41;5084140;28;20052;-55
2022/08/07 03:23:56;;;;;;;1.40;1.30;;;17.00;41.50;;;19.71;32.48;98145.28;5084849;28;20062;-53
2022/08/07 03:26:45;;;;;;;2.83;1.67;;;17.00;41.50;;;19.71;32.45;98150.69;5087098;28;20048;-53
2022/08/07 03:29:36;;;;;;;2.67;1.08;;;17.00;41.80;;;19.68;32.60;98150.06;5070735;28;20048;-51
2022/08/07 03:32:10;;;;;;;1.30;1.20;;;16.90;42.40;;;19.66;32.54;98146.75;5068921;28;20048;-50
2022/08/07 03:34:47;;;;;;;1.55;1.23;;;17.00;42.00;;;19.68;32.53;98149.25;5086578;28;20238;-55
2022/08/07 03:37:36;;;;;;;1.23;1.13;;;16.90;42.20;;;19.65;32.68;98152.34;5086763;28;20060;-55
2022/08/07 03:40:23;;;;;;;1.45;1.13;;;16.90;42.50;;;19.58;33.02;98149.66;5085295;28;20458;-54
2022/08/07 03:43:05;;;;;;;2.80;1.30;;;16.80;42.60;;;19.58;32.88;98151.50;5100186;28;20060;-55
2022/08/07 03:45:43;;;;;;;2.50;1.33;;;16.80;42.70;;;19.55;32.78;98150.06;5084929;28;20043;-51
2022/08/07 03:48:17;;;;;;;1.65;1.25;;;16.80;42.50;;;19.56;33.13;98158.97;5086910;28;20063;-54
2022/08/07 03:50:46;;;;;;;1.65;1.17;;;16.80;42.60;;;19.50;33.18;98149.81;5084005;28;20056;-56
2022/08/07 03:53:29;;;;;;;1.27;1.13;;;16.80;43.00;;;19.49;33.25;98148.19;5084244;28;20254;-52
2022/08/07 03:56:23;;;;;;;1.30;1.10;;;16.70;43.20;;;19.46;33.25;98153.97;5087028;28;20060;-56
2022/08/07 03:59:05;;;;;;;2.38;1.33;;;16.70;43.50;;;19.42;33.36;98142.75;5068673;28;20064;-56
2022/08/07 04:01:47;;;;;;;1.92;1.23;;;16.70;44.20;;;19.44;33.31;98143.41;5084583;28;20060;-51
2022/08/07 04:04:21;;;;;;;2.10;1.30;;;16.70;43.40;;;19.39;33.40;98139.66;5084878;28;20063;-56
2022/08/07 04:06:56;;;;;;;1.30;1.20;;;16.60;43.50;;;19.31;33.72;98140.69;5068266;28;20052;-54
2022/08/07 04:09:29;;;;;;;2.17;1.23;;;16.60;43.70;;;19.27;33.74;98151.06;5085905;28;20458;-55
2022/08/07 04:12:13;;;;;;;1.63;1.52;;;16.60;43.80;;;19.31;33.90;98153.31;5069724;28;20060;-51
2022/08/07 04:14:58;;;;;;;1.63;1.47;;;16.60;44.00;;;19.28;33.97;98150.00;5084373;28;20067;-53
2022/08/07 04:17:30;;;;;;;2.47;1.30;;;16.50;44.20;;;19.26;34.01;98154.78;5068185;28;20125;-55
2022/08/07 04:20:18;;;;;;;1.65;1.25;;;16.50;44.20;;;19.27;34.11;98153.75;5085441;28;20056;-50
2022/08/07 04:22:51;;;;;;;2.33;1.38;;;16.60;44.40;;;19.25;34.14;98158.53;5084158;28;20055;-54
2022/08/07 04:25:34;;;;;;;1.30;1.20;;;16.60;44.40;;;19.25;34.09;98155.84;5083801;28;20541;-55
2022/08/07 04:28:09;;;;;;;1.85;1.63;;;16.60;44.50;;;19.23;34.17;98162.44;5070111;28;20273;-55
2022/08/07 04:30:41;;;;;;;1.33;1.23;;;16.50;44.70;;;19.20;34.36;98166.41;5084190;28;20372;-52
2022/08/07 04:33:30;;;;;;;1.65;1.30;;;16.50;44.80;;;19.23;34.31;98171.41;5089682;28;20055;-54
2022/08/07 04:36:07;;;;;;;1.77;1.38;;;16.60;44.70;;;19.28;34.35;98173.47;5087869;28;20078;-55
2022/08/07 04:38:37;;;;;;;2.40;1.35;;;16.60;45.40;;;19.28;34.50;98174.31;5087708;28;20055;-54
2022/08/07 04:41:08;;;;;;;4.25;1.38;;;16.60;44.80;;;19.28;34.50;98174.31;5088843;28;20054;-54
2022/08/07 04:43:47;;;;;;;4.35;1.42;;;16.60;44.80;;;19.30;34.61;98175.97;5088187;28;20056;-55
2022/08/07 04:47:20;;;;;;;2.30;1.55;;;16.60;44.90;;;19.37;34.18;98179.53;5073467;28;20074;-53
2022/08/07 04:50:19;;;;;;;2.78;1.20;;;16.60;45.90;;;19.37;34.17;98174.97;5088261;28;20066;-56
2022/08/07 04:53:44;;;;;;;1.83;1.33;;;16.70;45.00;;;19.38;34.24;98176.59;5087483;28;20062;-53
2022/08/07 04:56:56;;;;;;;;;;;16.70;45.60;;;19.64;33.54;98181.22;5089313;28;20342;-55
2022/08/07 05:00:02;;;;;;;2.40;1.40;;;16.70;45.90;;;19.47;33.98;98179.97;5087812;28;19922;-54
2022/08/07 05:03:09;;;;;;;2.17;1.40;;;16.70;45.80;;;19.43;34.27;98181.41;5086835;28;20056;-52
2022/08/07 05:06:08;;;;;;;1.60;1.38;;;16.70;45.30;;;19.44;34.46;98181.22;5089883;28;20047;-55
2022/08/07 05:09:15;;;;;;;1.58;1.48;;;16.80;45.50;;;19.52;34.37;98187.44;5071948;28;20396;-54
2022/08/07 05:11:58;;;;;;;1.38;1.27;;;16.80;45.00;;;19.50;34.43;98187.63;5087883;28;20044;-55
2022/08/07 05:14:37;;;;;;;2.28;1.50;;;16.90;44.70;;;19.51;34.72;98192.00;5089416;28;20048;-55
2022/08/07 05:17:26;;;;;;;;;;;16.90;45.10;;;19.80;33.91;98190.00;5087378;28;20060;-57
2022/08/07 05:20:25;;;;;;;1.65;1.27;;;16.90;46.00;;;19.64;34.29;98183.94;5086155;28;19916;-52
2022/08/07 05:23:04;;;;;;;2.45;1.80;;;16.90;45.60;;;19.57;34.62;98193.88;5086078;28;20231;-55
2022/08/07 05:25:44;;;;;;;3.13;1.40;;;16.90;45.10;;;19.58;34.91;98197.41;5088584;28;20052;-57
2022/08/07 05:28:34;;;;;;;2.45;1.45;;;16.90;45.20;;;19.58;34.73;98203.66;5090768;28;20082;-56
2022/08/07 05:31:04;;;;;;;2.47;1.60;;;17.00;45.00;;;19.59;34.91;98199.91;5069388;28;20060;-53
2022/08/07 05:33:36;;;;;;;1.52;1.23;;;17.00;45.20;;;19.61;35.09;98200.53;5086829;28;20241;-55
2022/08/07 05:36:07;;;;;;;2.22;1.10;;;17.10;45.40;;;19.65;35.12;98195.56;5086894;28;20062;-54
2022/08/07 05:38:52;;;;;;;1.63;1.45;;;17.10;45.40;;;19.70;35.45;98203.03;5071599;28;20060;-56
2022/08/07 05:41:30;;;;;;;3.70;2.25;;;17.10;45.50;;;19.74;35.08;98204.34;5070470;28;20055;-54
2022/08/07 05:44:19;;;;;;;1.73;1.38;;;17.10;45.30;;;19.77;35.15;98201.19;5088381;28;20074;-53
2022/08/07 05:46:59;;;;;;;1.80;1.25;;;17.20;45.40;;;19.79;35.15;98208.09;5085633;28;20465;-54
2022/08/07 05:49:29;;;;;;;8.90;1.83;;;17.20;45.50;;;19.80;35.15;98209.72;5086953;28;20060;-52
2022/08/07 05:52:10;;;;;;;1.73;1.50;;;17.20;45.50;;;19.83;35.38;98205.78;5086219;28;20058;-55
2022/08/07 05:54:40;;;;;;;5.85;2.17;;;17.20;45.90;;;19.85;35.34;98204.56;5087313;28;20281;-54
2022/08/07 05:57:24;;;;;;;2.05;1.70;;;17.30;46.00;;;19.91;36.09;98205.59;5086219;28;20052;-54
2022/08/07 06:00:00;;;;;;;3.80;2.00;;;17.30;46.50;;;19.93;35.67;98213.47;5086223;28;20048;-55
2022/08/07 06:02:40;;;;;;;2.10;1.70;;;17.40;46.60;;;19.99;35.74;98218.06;5087560;28;20044;-56
2022/08/07 06:05:12;;;;;;;2.92;1.80;;;17.40;46.40;;;20.06;35.77;98210.78;5085703;28;20066;-55
2022/08/07 06:07:46;;;;;;;2.00;1.80;;;17.50;46.60;;;20.09;36.09;98218.47;5086439;28;20051;-60
2022/08/07 06:10:37;;;;;;;2.35;1.90;;;17.60;46.60;;;20.17;35.86;98220.13;5073074;28;20090;-60
2022/08/07 06:13:08;;;;;;;4.82;2.08;;;17.60;46.80;;;20.22;35.98;98223.03;5085360;28;20062;-60
2022/08/07 06:15:44;;;;;;;2.50;2.25;;;17.70;46.90;;;20.23;36.26;98224.69;5070207;28;20044;-60
2022/08/07 06:18:21;;;;;;;2.42;2.00;;;17.70;47.30;;;20.29;36.25;98231.97;5071318;28;20054;-59
2022/08/07 06:20:55;;;;;;;2.38;2.17;;;17.80;47.30;;;20.32;36.58;98226.16;5083867;28;20436;-60
2022/08/07 06:23:44;;;;;;;4.22;2.03;;;17.80;47.60;;;20.38;36.59;98221.78;5084425;28;20371;-60
2022/08/07 06:26:32;;;;;;;3.40;2.20;;;17.90;47.40;;;20.45;36.80;98222.59;5085459;28;20040;-59
2022/08/07 06:29:02;;;;;;;3.03;2.40;;;18.00;47.70;;;20.48;37.01;98224.06;5101306;28;20490;-59
2022/08/07 06:31:34;;;;;;;3.20;2.63;;;18.10;48.00;;;20.54;37.05;98223.22;5085535;28;20050;-60
2022/08/07 06:34:22;;;;;;;3.65;3.35;;;18.10;48.20;;;20.62;36.94;98221.13;5070137;28;20350;-58
2022/08/07 06:36:56;;;;;;;4.43;2.45;;;18.20;48.10;;;20.63;37.36;98216.56;5083974;28;20231;-60
2022/08/07 06:39:31;;;;;;;3.75;2.65;;;18.30;48.30;;;20.69;37.38;98213.00;5085080;28;20052;-60
2022/08/07 06:42:35;;;;;;;3.88;3.00;;;18.30;48.50;;;20.77;37.40;98214.66;5085338;28;20376;-60
2022/08/07 06:45:26;;;;;;;2.97;2.65;;;18.30;48.90;;;20.81;37.40;98214.00;5078085;28;20048;-60
2022/08/07 06:47:58;;;;;;;3.88;2.80;;;18.30;48.60;;;20.85;37.58;98209.00;5065769;28;20056;-60
2022/08/07 06:50:40;;;;;;;3.38;2.83;;;18.40;48.60;;;20.86;37.49;98210.69;5066416;28;20059;-60
2022/08/07 06:53:13;;;;;;;4.78;2.53;;;18.50;48.70;;;20.92;37.40;98212.53;5064689;28;20263;-60
2022/08/07 06:56:07;;;;;;;5.30;3.60;;;18.60;48.70;;;20.98;37.52;98208.13;5051407;28;20364;-60
2022/08/07 06:58:45;;;;;;;3.28;2.60;;;18.60;49.30;;;21.00;37.58;98212.28;5066140;28;20625;-60
2022/08/07 07:01:35;;;;;;;3.85;2.75;;;18.60;48.90;;;21.03;37.69;98208.31;5063432;28;20064;-60
2022/08/07 07:04:16;;;;;;;3.28;2.45;;;18.70;48.70;;;21.08;37.54;98207.69;5050155;28;20056;-58
2022/08/07 07:07:06;;;;;;;5.28;2.67;;;18.70;48.70;;;21.14;37.65;98210.34;5065542;28;20048;-60
2022/08/07 07:09:53;;;;;;;2.88;2.58;;;18.80;49.00;;;21.24;37.27;98207.16;5064830;28;20266;-60
2022/08/07 07:12:25;;;;;;;4.45;3.53;;;18.80;48.70;;;21.24;37.44;98208.00;5063293;28;20071;-60
2022/08/07 07:15:28;;;;;;;5.15;2.60;;;18.80;48.80;;;21.32;37.40;98214.22;5065102;28;20048;-60
2022/08/07 07:18:28;;;;;;;4.63;2.97;;;18.90;49.50;;;21.37;37.58;98214.41;5065230;28;20053;-59
2022/08/07 07:21:23;;;;;;;3.50;3.20;;;18.90;50.60;;;21.41;38.11;98208.31;5064614;28;20048;-60
2022/08/07 07:24:09;;;;;;;3.58;2.83;;;19.00;50.50;;;21.48;38.36;98211.03;5065538;28;20056;-59
2022/08/07 07:26:43;;;;;;;3.20;2.90;;;19.10;50.20;;;21.55;38.72;98214.50;5065606;28;20063;-60
2022/08/07 07:29:26;;;;;;;3.92;2.83;;;19.20;50.40;;;21.63;38.37;98210.72;5064524;28;20044;-58
2022/08/07 07:32:16;;;;;;;3.15;2.80;;;19.30;50.20;;;21.70;38.53;98214.22;5064240;28;20056;-59
2022/08/07 07:34:52;;;;;;;6.00;3.58;;;19.40;50.20;;;21.72;38.56;98211.31;5064161;28;20328;-59
2022/08/07 07:37:23;;;;;;;3.75;3.08;;;19.40;50.10;;;21.77;38.57;98208.75;5063171;28;20238;-60
2022/08/07 07:40:17;;;;;;;3.80;3.45;;;19.50;50.30;;;21.89;38.43;98212.44;5064160;28;20341;-60
2022/08/07 07:42:50;;;;;;;3.25;2.80;;;19.60;50.30;;;21.93;38.83;98205.50;5063705;28;20059;-59
2022/08/07 07:45:27;;;;;;;3.10;2.60;;;19.70;50.30;;;21.98;38.65;98204.84;5076983;28;20320;-57
2022/08/07 07:48:20;;;;;;;4.95;2.80;;;19.70;50.50;;;22.09;39.00;98203.28;5071178;28;20048;-59
2022/08/07 07:51:04;;;;;;;3.13;2.72;;;19.80;50.50;;;22.17;38.74;98203.84;5085393;28;20127;-60
2022/08/07 07:53:44;;;;;;;4.35;3.40;;;19.90;50.40;;;22.28;38.59;98206.91;5085332;28;20058;-59
2022/08/07 07:56:24;;;;;;;3.83;3.05;;;20.00;50.30;;;22.32;38.70;98198.09;5085543;28;20552;-59
2022/08/07 07:59:03;;;;;;;3.13;2.80;;;20.10;50.30;;;22.39;38.56;98204.31;5083821;28;20285;-60
2022/08/07 08:01:36;;;;;;;5.25;3.85;;;20.20;50.40;;;22.42;39.02;98201.13;5095213;28;20055;-59
2022/08/07 08:04:27;;;;;;;4.38;3.20;;;20.20;50.30;;;22.52;38.98;98195.19;5092814;28;20048;-59
2022/08/07 08:06:56;;;;;;;2.90;2.42;;;20.30;50.50;;;22.57;38.90;98200.78;5095887;28;20349;-58
2022/08/07 08:09:36;;;;;;;3.65;2.90;;;20.40;50.20;;;22.65;38.55;98191.50;5100357;28;20244;-59
2022/08/07 08:12:25;;;;;;;4.13;3.35;;;20.40;50.10;;;22.71;38.40;98193.31;5097744;28;20219;-60
2022/08/07 08:15:12;;;;;;;3.92;3.50;;;20.50;50.20;;;22.81;38.38;98190.06;5079588;28;20065;-58
2022/08/07 08:17:42;;;;;;;3.45;3.15;;;20.60;50.00;;;22.84;38.50;98177.91;5096836;28;20048;-59
2022/08/07 08:20:28;;;;;;;4.38;3.05;;;20.60;50.00;;;22.91;38.07;98184.09;5107481;28;20537;-59
2022/08/07 08:28:44;;;;;;;4.05;2.72;;;20.80;50.40;;;23.09;38.26;98189.56;5107885;28;19916;-59
2022/08/07 08:31:27;;;;;;;3.03;2.70;;;20.80;50.00;;;23.11;38.35;98184.72;5109668;28;20066;-59
2022/08/07 08:34:18;;;;;;;3.92;2.65;;;20.80;49.60;;;23.17;38.17;98181.09;5107912;28;20354;-57
2022/08/07 08:36:57;;;;;;;3.13;2.70;;;20.90;49.80;;;23.20;38.23;98185.22;5109090;28;20356;-53
2022/08/07 08:39:27;;;;;;;3.17;2.78;;;21.00;49.70;;;23.26;38.05;98176.16;5108144;28;20055;-53
2022/08/07 08:42:15;;;;;;;3.92;3.28;;;21.00;49.00;;;23.34;38.04;98175.84;5107720;28;20044;-52
2022/08/07 08:45:33;;;;;;;3.40;3.10;;;21.10;49.20;;;23.48;37.81;98183.81;5108087;28;20047;-51
2022/08/07 08:48:44;;;;;;;4.03;3.63;;;21.20;48.70;;;23.57;37.35;98179.69;5097394;28;20070;-53
2022/08/07 08:51:38;;;;;;;2.90;2.70;;;21.20;48.00;;;23.58;36.69;98181.34;5099497;28;20069;-53
2022/08/07 08:55:01;;;;;;;4.00;2.78;;;21.30;47.50;;;23.62;36.89;98170.84;5109006;28;20054;-52
2022/08/07 08:57:40;;;;;;;2.67;2.28;;;21.30;47.10;;;23.62;36.63;98174.38;5109228;28;20057;-51
2022/08/07 09:00:10;;;;;;;3.33;3.03;;;21.30;46.80;;;23.62;36.67;98168.13;5109682;28;20062;-51
2022/08/07 09:02:38;;;;;;;2.63;2.42;;;21.40;46.80;;;23.68;36.54;98167.19;5108438;28;20043;-52
2022/08/07 09:05:19;;;;;;;4.93;2.80;;;21.40;46.80;;;23.75;35.98;98166.03;5109326;28;20050;-54
2022/08/07 09:08:33;;;;;;;4.35;2.78;;;21.50;46.80;;;23.87;36.14;98157.94;5092531;28;20060;-54
2022/08/07 09:11:24;;;;;;;3.72;2.30;;;21.60;46.10;;;23.94;35.00;98164.09;5109024;28;20054;-53
2022/08/07 09:14:19;;;;;;;2.00;1.80;;;21.70;44.90;;;24.00;34.47;98154.16;5106276;28;20063;-50
2022/08/07 09:17:20;;;;;;;2.35;2.13;;;21.80;43.70;;;24.10;33.74;98139.97;5108538;28;20058;-54
2022/08/07 09:20:11;;;;;;;1.80;1.70;;;21.90;41.70;;;24.18;33.36;98145.88;5108025;28;20056;-56
2022/08/07 09:23:12;;;;;;;1.73;1.60;;;22.00;41.30;;;24.30;32.00;98147.78;5108384;28;20051;-54
2022/08/07 09:26:26;;;;;;;4.22;1.85;;;22.10;39.00;;;24.45;31.51;98153.56;5108497;28;20336;-54
2022/08/07 09:29:05;;;;;;;3.92;1.65;;;22.20;37.10;;;24.47;31.00;98156.88;5107291;28;20058;-53
2022/08/07 09:32:20;;;;;;;2.05;1.67;;;22.30;37.80;;;24.59;30.89;98161.50;5107895;28;20051;-54
2022/08/07 09:35:12;;;;;;;1.70;1.50;;;22.40;37.40;;;24.61;30.17;98153.91;5108563;28;20070;-55
2022/08/07 09:38:05;;;;;;;1.65;1.52;;;22.40;36.10;;;24.68;30.07;98154.59;5108462;28;20069;-52
2022/08/07 09:40:50;;;;;;;1.40;1.30;;;22.40;37.00;;;24.78;30.08;98152.09;5108462;28;20060;-54
2022/08/07 09:43:55;;;;;;;1.80;1.30;;;22.60;37.00;;;24.85;29.57;98151.97;5107112;28;20069;-55
2022/08/07 09:47:00;;;;;;;1.70;1.60;;;22.60;34.50;;;24.91;28.94;98146.38;5108786;28;20069;-56
2022/08/07 09:50:19;;;;;;;1.42;1.33;;;22.70;34.30;;;24.90;29.16;98136.56;5108633;28;20051;-52
2022/08/07 09:53:04;;;;;;;2.60;2.00;;;22.70;34.00;;;24.94;28.88;98137.72;5108991;28;20161;-46
2022/08/07 09:56:07;;;;;;;2.63;1.55;;;22.80;33.90;;;24.97;29.13;98133.69;5107854;28;20041;-51
2022/08/07 09:59:00;;;;;;;1.80;1.40;;;22.80;33.90;;;25.02;27.91;98135.69;5109137;28;20057;-54
2022/08/07 10:02:11;;;;;;;2.05;1.52;;;22.80;33.80;;;25.07;28.20;98127.63;5109002;28;20281;-47
2022/08/07 10:04:49;;;;;;;4.10;1.65;;;22.90;32.20;;;25.20;27.98;98127.31;5108738;28;20056;-48
2022/08/07 10:07:40;;;;;;;1.48;1.30;;;23.00;33.70;;;25.37;27.70;98127.38;5108032;28;20047;-47
2022/08/07 10:10:50;;;;;;;1.63;1.52;;;23.10;33.00;;;25.52;27.73;98126.81;5107934;28;20051;-44
2022/08/07 10:14:27;;;;;;;2.17;1.30;;;23.20;33.20;;;25.71;27.62;98125.53;5108315;28;20055;-46
2022/08/07 10:17:19;;;;;;;2.65;1.75;;;23.30;31.80;;;25.82;27.55;98117.50;5106855;28;20043;-44
2022/08/07 10:20:46;;;;;;;1.88;1.70;;;23.40;33.50;;;25.95;27.15;98119.91;5107486;28;20051;-45
2022/08/07 10:23:42;;;;;;;1.63;1.52;;;23.50;31.60;;;26.08;27.19;98108.66;5107211;28;20245;-42
2022/08/07 10:26:56;;;;;;;33.30;30.67;;;23.60;32.20;;;26.19;26.68;98097.88;5108236;28;20084;-46
2022/08/07 10:30:05;;;;;;;10.50;9.52;;;23.70;31.30;;;26.27;27.12;98102.94;5107530;28;20289;-45
2022/08/07 10:33:07;;;;;;;3.33;2.75;;;23.80;32.10;;;26.39;26.37;98095.47;5107872;28;20269;-47
2022/08/07 10:36:23;;;;;;;2.03;1.85;;;23.80;30.80;;;26.47;26.42;98084.09;5107618;28;20044;-49
2022/08/07 10:39:55;;;;;;;1.58;1.35;;;24.00;30.90;;;26.58;26.46;98085.06;5104775;28;20065;-45
2022/08/07 10:42:57;;;;;;;2.80;1.38;;;24.10;31.10;;;26.64;26.14;98078.59;5108019;28;20050;-45
2022/08/07 10:45:37;;;;;;;1.58;1.48;;;24.10;30.50;;;26.66;25.56;98081.09;5108305;28;20066;-45
2022/08/07 10:49:13;;;;;;;2.10;1.30;;;24.10;31.60;;;26.73;25.72;98084.44;5103927;28;20240;-46
2022/08/07 10:52:44;;;;;;;2.08;1.65;;;24.20;30.30;;;26.82;25.26;98076.63;5100324;28;20081;-45
2022/08/07 10:55:26;;;;;;;1.45;1.35;;;24.30;29.30;;;26.79;24.31;98071.66;5097430;28;20066;-48
2022/08/07 10:58:30;;;;;;;1.55;1.42;;;24.30;29.80;;;26.81;24.35;98069.50;5105588;28;20476;-48
2022/08/07 11:01:34;;;;;;;1.50;1.40;;;24.30;29.80;;;26.89;24.62;98064.41;5106505;28;20051;-47
2022/08/07 11:04:49;;;;;;;1.30;1.20;;;24.30;29.00;;;26.99;23.97;98073.81;5106298;28;20051;-46
2022/08/07 11:07:40;;;;;;;1.80;1.30;;;24.30;28.90;;;26.95;24.24;98056.25;5105504;28;20059;-45
2022/08/07 11:10:38;;;;;;;2.92;1.40;;;24.30;29.80;;;26.98;24.02;98050.28;5106293;28;20050;-47
2022/08/07 11:13:36;;;;;;;1.42;1.33;;;24.40;29.60;;;27.02;23.20;98051.41;5105150;28;20059;-46
2022/08/07 11:16:49;;;;;;;2.30;1.50;;;24.50;27.70;;;27.09;23.32;98054.78;5106810;28;20368;-46
2022/08/07 11:20:17;;;;;;;1.77;1.25;;;24.50;28.60;;;27.15;23.39;98045.53;5106510;28;20738;-46
2022/08/07 11:23:00;;;;;;;2.03;1.40;;;24.60;28.00;;;27.18;23.21;98042.28;5104458;28;20052;-46
2022/08/07 11:25:43;;;;;;;1.38;1.20;;;24.60;28.40;;;27.19;23.23;98043.94;5106934;28;20059;-45
2022/08/07 11:28:27;;;;;;;4.50;2.10;;;24.70;28.30;;;27.21;23.02;98035.47;5104850;28;20054;-45
2022/08/07 11:31:29;;;;;;;2.00;1.30;;;24.70;28.80;;;27.27;22.92;98037.19;5107050;28;20065;-49
2022/08/07 11:34:30;;;;;;;2.17;1.27;;;24.80;27.90;;;27.34;23.20;98039.72;5106937;28;20059;-47
2022/08/07 11:37:28;;;;;;;2.05;1.60;;;24.80;27.60;;;27.39;22.74;98034.28;5106113;28;20061;-47
2022/08/07 11:40:22;;;;;;;2.30;1.45;;;24.80;27.90;;;27.47;22.40;98037.38;5104907;28;20050;-47
2022/08/07 11:43:06;;;;;;;1.50;1.40;;;24.90;28.10;;;27.52;22.52;98036.59;5110845;28;20337;-46
2022/08/07 11:45:49;;;;;;;4.00;2.42;;;24.90;28.10;;;27.59;22.38;98028.19;5109905;28;20303;-47